Time;durP1;ratioP1;P1;durP2;ratioP2;P2;SDS_P1;SDS_P2;PMS_P1;PMS_P2;Temp;Humidity;BMP_temperature;BMP_pressure;BME280_temperature;BME280_humidity;BME280_pressure;Samples;Min_cycle;Max_cycle;Signal;HPM_P1;HPM_P2
2022/01/20 00:03:34;;;;;;;38.25;5.47;;;;;;;3.43;100.00;102600.09;5270844;28;19930;-74
2022/01/20 00:30:54;;;;;;;27.42;4.35;;;;;;;2.88;100.00;102619.56;5266042;28;20031;-74
2022/01/20 00:38:59;;;;;;;21.73;3.95;;;;;;;2.67;100.00;102612.63;5271887;28;20422;-74
2022/01/20 00:41:30;;;;;;;50.58;5.82;;;;;;;2.66;100.00;102614.44;5273289;28;20042;-74
2022/01/20 00:44:00;;;;;;;22.88;3.85;;;;;;;2.63;100.00;102608.41;5269318;28;20016;-74
2022/01/20 00:46:31;;;;;;;40.00;4.78;;;;;;;2.63;100.00;102619.84;5277677;28;20035;-74
2022/01/20 00:49:01;;;;;;;27.27;3.45;;;;;;;2.58;100.00;102625.38;5271697;28;20382;-74
2022/01/20 00:51:32;;;;;;;26.83;3.72;;;;;;;2.56;100.00;102619.28;5277181;28;20027;-74
2022/01/20 00:54:02;;;;;;;30.60;4.13;;;;;;;2.52;100.00;102627.47;5273945;28;20024;-74
2022/01/20 00:56:33;;;;;;;21.70;3.63;;;;;;;2.46;100.00;102636.53;5270002;28;20491;-75
2022/01/20 00:59:03;;;;;;;41.85;4.82;;;;;;;2.49;100.00;102636.38;5273654;28;20028;-74
2022/01/20 01:01:34;;;;;;;35.38;5.45;;;;;;;2.55;100.00;102638.75;5278102;28;20027;-74
2022/01/20 01:04:05;;;;;;;40.42;4.75;;;;;;;2.62;100.00;102643.78;5268755;28;20096;-74
2022/01/20 01:06:50;;;;;;;32.70;4.25;;;;;;;2.72;100.00;102658.34;5266318;28;20036;-74
2022/01/20 01:09:21;;;;;;;41.40;4.95;;;;;;;2.79;100.00;102641.19;5271264;28;20058;-74
2022/01/20 01:11:56;;;;;;;30.92;4.40;;;;;;;2.78;100.00;102639.47;5265181;28;20071;-75
2022/01/20 01:14:30;;;;;;;26.25;4.05;;;;;;;2.76;100.00;102642.22;5264682;28;20035;-75
2022/01/20 01:22:21;;;;;;;34.53;7.30;;;;;;;2.75;100.00;102639.63;5264929;28;20028;-74
2022/01/20 01:24:54;;;;;;;24.35;3.85;;;;;;;2.77;100.00;102643.94;5263596;28;20435;-75
2022/01/20 01:27:27;;;;;;;41.47;4.60;;;;;;;2.78;100.00;102648.28;5276495;28;20702;-74
2022/01/20 01:30:04;;;;;;;29.90;4.05;;;;;;;2.82;100.00;102649.00;5264367;28;20024;-74
2022/01/20 01:32:47;;;;;;;35.15;4.35;;;;;;;2.89;100.00;102649.56;5265566;28;20031;-75
2022/01/20 01:35:20;;;;;;;26.00;4.25;;;;;;;3.03;100.00;102668.34;5264034;28;20016;-74
2022/01/20 01:40:41;;;;;;;39.70;4.30;;;;;;;3.19;100.00;102664.03;5278232;28;20496;-74
2022/01/20 01:43:17;;;;;;;39.85;3.90;;;;;;;3.23;100.00;102670.91;5273446;28;20432;-74
2022/01/20 01:45:50;;;;;;;28.75;3.45;;;;;;;3.26;100.00;102667.22;5277839;28;20027;-74
2022/01/20 01:48:21;;;;;;;26.27;3.47;;;;;;;3.29;100.00;102675.91;5280508;28;20028;-73
2022/01/20 01:50:52;;;;;;;24.42;3.53;;;;;;;3.32;100.00;102664.28;5269941;28;20024;-73
2022/01/20 01:53:23;;;;;;;18.40;2.85;;;;;;;3.33;100.00;102664.22;5276947;28;20028;-73
2022/01/20 01:55:54;;;;;;;27.92;3.92;;;;;;;3.33;100.00;102666.88;5280539;28;20042;-73
2022/01/20 01:58:24;;;;;;;31.95;3.58;;;;;;;3.31;100.00;102670.50;5271381;28;20129;-73
2022/01/20 02:00:56;;;;;;;22.23;3.30;;;;;;;3.36;100.00;102674.69;5265530;28;20122;-73
2022/01/20 02:03:28;;;;;;;23.83;3.47;;;;;;;3.34;100.00;102676.53;5276438;28;20174;-74
2022/01/20 02:19:53;;;;;;;17.67;2.90;;;;;;;3.50;100.00;102676.63;5266198;28;20107;-74
2022/01/20 02:22:24;;;;;;;22.70;2.90;;;;;;;3.42;100.00;102677.97;5272120;28;20052;-75
2022/01/20 02:24:55;;;;;;;17.92;2.58;;;;;;;3.33;100.00;102668.66;5274719;28;20473;-74
2022/01/20 02:27:25;;;;;;;17.35;2.38;;;;;;;3.26;100.00;102681.38;5270706;28;20028;-75
2022/01/20 02:29:56;;;;;;;16.23;2.78;;;;;;;3.26;100.00;102688.44;5268429;28;20385;-74
2022/01/20 02:32:29;;;;;;;23.08;3.38;;;;;;;3.19;100.00;102687.88;5275300;28;20373;-74
2022/01/20 02:35:02;;;;;;;17.55;2.25;;;;;;;3.16;100.00;102690.66;5273711;28;20077;-74
2022/01/20 02:37:32;;;;;;;23.55;3.33;;;;;;;3.13;100.00;102682.88;5271814;27;20436;-74
2022/01/20 02:40:31;;;;;;;21.92;4.95;;;;;;;3.10;100.00;102680.38;5275288;28;20024;-74
2022/01/20 02:45:43;;;;;;;17.42;2.55;;;;;;;3.04;100.00;102673.56;5272841;28;20032;-73
2022/01/20 02:48:25;;;;;;;14.57;2.22;;;;;;;3.06;100.00;102670.84;5278328;28;20172;-74
2022/01/20 02:50:57;;;;;;;30.73;2.83;;;;;;;3.10;100.00;102667.09;5274054;28;20028;-74
2022/01/20 02:53:28;;;;;;;12.15;2.25;;;;;;;3.15;100.00;102683.66;5273160;28;20024;-73
2022/01/20 02:55:59;;;;;;;13.43;2.42;;;;;;;3.21;100.00;102682.50;5279509;28;20016;-74
2022/01/20 02:58:31;;;;;;;15.10;2.50;;;;;;;3.29;100.00;102683.00;5272499;28;20036;-73
2022/01/20 03:01:01;;;;;;;22.88;2.63;;;;;;;3.35;100.00;102680.91;5273667;28;20027;-74
2022/01/20 03:03:34;;;;;;;13.02;3.78;;;;;;;3.40;100.00;102685.97;5276090;28;20370;-74
2022/01/20 03:06:07;;;;;;;18.85;2.00;;;;;;;3.37;100.00;102665.78;5271283;28;20059;-74
2022/01/20 03:08:39;;;;;;;20.42;4.03;;;;;;;3.40;100.00;102678.03;5281803;28;20031;-74
2022/01/20 03:11:10;;;;;;;22.65;2.63;;;;;;;3.47;100.00;102691.88;5283800;28;20115;-74
2022/01/20 03:13:50;;;;;;;22.33;2.83;;;;;;;3.62;100.00;102710.53;5281347;28;20081;-74
2022/01/20 03:16:25;;;;;;;10.48;2.30;;;;;;;3.55;100.00;102703.81;5274993;28;20027;-75
2022/01/20 03:18:56;;;;;;;9.82;2.38;;;;;;;3.59;100.00;102678.84;5273065;28;20516;-75
2022/01/20 03:21:26;;;;;;;7.97;3.13;;;;;;;3.60;100.00;102680.56;5281002;28;20031;-74
2022/01/20 03:23:57;;;;;;;16.13;3.20;;;;;;;3.56;100.00;102678.13;5282531;28;20012;-74
2022/01/20 03:26:27;;;;;;;9.73;4.03;;;;;;;3.59;100.00;102659.41;5277910;28;20031;-75
2022/01/20 03:28:58;;;;;;;12.60;3.50;;;;;;;3.59;100.00;102665.56;5283571;28;20024;-75
2022/01/20 03:31:30;;;;;;;11.80;3.25;;;;;;;3.58;100.00;102647.06;5280829;28;20027;-74
2022/01/20 03:34:01;;;;;;;16.08;3.10;;;;;;;3.59;100.00;102644.34;5283139;28;20034;-74
2022/01/20 03:36:33;;;;;;;12.30;2.92;;;;;;;3.61;100.00;102649.56;5274540;28;20012;-73
2022/01/20 03:39:05;;;;;;;18.38;3.08;;;;;;;3.62;100.00;102646.00;5268537;28;20106;-74
2022/01/20 03:41:36;;;;;;;13.95;2.92;;;;;;;3.62;100.00;102640.69;5282347;28;20476;-75
2022/01/20 03:44:06;;;;;;;5.80;2.20;;;;;;;3.63;100.00;102643.25;5279128;28;20051;-75
2022/01/20 03:46:37;;;;;;;13.23;2.08;;;;;;;3.67;100.00;102640.44;5282700;28;20534;-74
2022/01/20 03:49:20;;;;;;;10.23;2.65;;;;;;;3.62;100.00;102643.34;5279202;28;20038;-73
2022/01/20 03:51:51;;;;;;;7.80;2.83;;;;;;;3.60;100.00;102650.50;5282123;28;20084;-73
2022/01/20 03:54:21;;;;;;;20.25;3.42;;;;;;;3.58;100.00;102649.72;5278189;28;20465;-73
2022/01/20 03:56:52;;;;;;;7.70;2.63;;;;;;;3.57;100.00;102648.03;5281107;28;20085;-74
2022/01/20 03:59:23;;;;;;;18.02;3.20;;;;;;;3.50;100.00;102650.09;5281212;28;20503;-75
2022/01/20 04:01:53;;;;;;;10.90;2.80;;;;;;;3.44;100.00;102657.50;5279386;28;20028;-76
2022/01/20 04:04:24;;;;;;;13.75;3.30;;;;;;;3.40;100.00;102651.50;5282582;28;20099;-75
2022/01/20 04:06:54;;;;;;;9.65;2.90;;;;;;;3.37;100.00;102655.16;5278539;28;20028;-74
2022/01/20 04:09:25;;;;;;;17.65;3.45;;;;;;;3.32;100.00;102651.88;5264666;28;20058;-75
2022/01/20 04:11:55;;;;;;;16.48;3.45;;;;;;;3.28;100.00;102654.75;5282838;28;20077;-74
2022/01/20 04:14:29;;;;;;;12.40;2.90;;;;;;;3.26;100.00;102648.66;5285097;28;20098;-74
2022/01/20 04:19:32;;;;;;;8.27;2.47;;;;;;;3.30;100.00;102660.84;5285184;28;20094;-74
2022/01/20 04:22:03;;;;;;;12.60;2.15;;;;;;;3.35;100.00;102666.78;5277055;28;20024;-75
2022/01/20 04:24:33;;;;;;;9.68;1.95;;;;;;;3.36;100.00;102672.03;5266412;28;20495;-74
2022/01/20 04:27:05;;;;;;;9.45;1.52;;;;;;;3.40;100.00;102674.50;5285454;28;20022;-75
2022/01/20 04:29:35;;;;;;;9.05;1.35;;;;;;;3.47;100.00;102684.78;5285294;28;20034;-74
2022/01/20 04:32:06;;;;;;;10.52;1.92;;;;;;;3.50;100.00;102678.44;5273707;28;20020;-74
2022/01/20 04:34:36;;;;;;;12.82;1.20;;;;;;;3.49;100.00;102682.88;5276211;28;20020;-74
2022/01/20 04:37:08;;;;;;;7.10;1.35;;;;;;;3.44;100.00;102668.97;5272113;28;20020;-74
2022/01/20 04:39:45;;;;;;;7.95;1.42;;;;;;;3.37;100.00;102676.41;5270404;28;20542;-73
2022/01/20 04:42:17;;;;;;;14.25;1.75;;;;;;;3.37;100.00;102688.81;5272091;28;20024;-74
2022/01/20 04:44:54;;;;;;;21.38;2.05;;;;;;;3.46;100.00;102683.03;5277378;28;20385;-74
2022/01/20 04:47:34;;;;;;;11.38;1.45;;;;;;;3.50;100.00;102705.81;5274859;28;20102;-74
2022/01/20 04:58:36;;;;;;;14.60;3.35;;;;;;;3.66;100.00;102675.88;5273105;28;20388;-74
2022/01/20 05:01:07;;;;;;;14.63;2.08;;;;;;;3.69;100.00;102673.06;5276432;28;20027;-74
2022/01/20 05:03:37;;;;;;;18.60;2.55;;;;;;;3.69;100.00;102665.97;5274697;28;20024;-74
2022/01/20 05:06:09;;;;;;;14.70;2.35;;;;;;;3.67;100.00;102683.78;5274907;28;20472;-74
2022/01/20 05:08:39;;;;;;;16.23;2.15;;;;;;;3.69;100.00;102673.94;5280567;28;20054;-73
2022/01/20 05:11:12;;;;;;;11.05;2.33;;;;;;;3.65;100.00;102675.00;5270573;28;20024;-73
2022/01/20 05:13:42;;;;;;;17.13;1.75;;;;;;;3.64;100.00;102668.84;5277010;28;20028;-73
2022/01/20 05:16:14;;;;;;;11.15;2.20;;;;;;;3.62;100.00;102675.19;5263115;28;20517;-73
2022/01/20 05:18:44;;;;;;;18.10;2.78;;;;;;;3.53;100.00;102673.84;5271597;28;20096;-73
2022/01/20 05:21:15;;;;;;;16.70;2.08;;;;;;;3.47;100.00;102678.59;5271673;28;20028;-73
2022/01/20 05:23:45;;;;;;;6.68;1.80;;;;;;;3.38;100.00;102683.41;5269060;28;20030;-74
2022/01/20 05:26:16;;;;;;;16.10;2.33;;;;;;;3.29;100.00;102678.56;5267354;28;20032;-73
2022/01/20 05:28:46;;;;;;;16.23;2.05;;;;;;;3.28;100.00;102691.91;5271698;28;20031;-73
2022/01/20 05:31:17;;;;;;;17.25;2.47;;;;;;;3.24;100.00;102707.09;5268707;28;20081;-74
2022/01/20 05:33:47;;;;;;;18.85;2.72;;;;;;;3.23;100.00;102701.88;5270492;28;20031;-73
2022/01/20 05:36:18;;;;;;;31.02;2.60;;;;;;;3.23;100.00;102699.22;5270205;28;20024;-74
2022/01/20 05:38:48;;;;;;;15.23;2.28;;;;;;;3.28;100.00;102697.19;5266607;28;20538;-73
2022/01/20 05:41:19;;;;;;;16.50;2.25;;;;;;;3.32;100.00;102706.75;5264724;28;20027;-74
2022/01/20 05:43:50;;;;;;;20.02;2.33;;;;;;;3.43;100.00;102719.47;5264884;28;20243;-74
2022/01/20 05:46:24;;;;;;;14.05;2.08;;;;;;;3.48;100.00;102722.78;5266317;28;20024;-74
2022/01/20 05:48:58;;;;;;;14.52;2.72;;;;;;;3.54;100.00;102735.75;5265429;28;20460;-74
2022/01/20 05:51:29;;;;;;;23.40;3.58;;;;;;;3.58;100.00;102742.63;5264716;28;20035;-75
2022/01/20 05:53:59;;;;;;;10.80;1.90;;;;;;;3.55;100.00;102732.13;5275633;28;20388;-75
2022/01/20 05:56:29;;;;;;;9.23;1.70;;;;;;;3.50;100.00;102728.84;5268752;28;20106;-74
2022/01/20 05:59:00;;;;;;;14.80;2.15;;;;;;;3.50;100.00;102734.16;5270770;28;20020;-74
2022/01/20 06:01:36;;;;;;;13.55;2.70;;;;;;;3.47;100.00;102729.03;5277145;28;20031;-75
2022/01/20 06:04:09;;;;;;;12.38;2.53;;;;;;;3.48;100.00;102726.28;5272881;27;20028;-75
2022/01/20 06:06:40;;;;;;;13.32;2.47;;;;;;;3.49;100.00;102735.97;5268453;28;20043;-74
2022/01/20 06:09:10;;;;;;;15.13;2.88;;;;;;;3.46;100.00;102732.59;5273813;28;20016;-75
2022/01/20 06:11:41;;;;;;;22.65;4.13;;;;;;;3.47;100.00;102737.84;5281581;28;20031;-74
2022/01/20 06:14:11;;;;;;;11.45;3.22;;;;;;;3.51;100.00;102754.44;5276816;28;20024;-73
2022/01/20 06:16:43;;;;;;;22.38;3.38;;;;;;;3.50;100.00;102758.91;5282676;28;20100;-73
2022/01/20 06:19:13;;;;;;;25.27;2.50;;;;;;;3.53;100.00;102761.41;5276744;28;20419;-75
2022/01/20 06:21:45;;;;;;;16.17;2.45;;;;;;;3.55;100.00;102758.69;5273925;28;20115;-76
2022/01/20 06:24:16;;;;;;;8.55;2.25;;;;;;;3.57;100.00;102773.63;5277914;28;20020;-75
2022/01/20 06:26:46;;;;;;;20.85;2.40;;;;;;;3.61;100.00;102780.50;5275708;28;20027;-75
2022/01/20 06:29:17;;;;;;;14.52;3.08;;;;;;;3.63;100.00;102770.66;5280197;28;20032;-74
2022/01/20 06:31:47;;;;;;;10.73;2.35;;;;;;;3.60;100.00;102772.59;5270573;28;20500;-74
2022/01/20 06:34:18;;;;;;;11.75;2.40;;;;;;;3.59;100.00;102774.38;5279740;28;20019;-74
2022/01/20 06:36:48;;;;;;;16.73;2.72;;;;;;;3.57;100.00;102773.63;5277212;28;20552;-75
2022/01/20 06:39:19;;;;;;;16.13;2.47;;;;;;;3.52;100.00;102780.94;5280682;28;20038;-75
2022/01/20 06:41:49;;;;;;;20.83;3.17;;;;;;;3.52;100.00;102793.34;5284890;28;20031;-75
2022/01/20 06:44:21;;;;;;;26.85;4.20;;;;;;;3.51;100.00;102784.50;5285850;27;20012;-75
2022/01/20 06:46:51;;;;;;;17.70;3.60;;;;;;;3.55;100.00;102787.88;5285352;28;20047;-75
2022/01/20 06:49:22;;;;;;;11.75;2.10;;;;;;;3.58;100.00;102798.34;5286316;28;20024;-74
2022/01/20 06:51:52;;;;;;;13.82;2.75;;;;;;;3.56;100.00;102809.03;5284993;28;20031;-75
2022/01/20 06:54:23;;;;;;;13.35;2.40;;;;;;;3.60;100.00;102812.41;5284854;28;20517;-75
2022/01/20 06:56:54;;;;;;;20.98;2.65;;;;;;;3.59;100.00;102819.50;5273589;28;20156;-76
2022/01/20 06:59:24;;;;;;;15.77;2.85;;;;;;;3.61;100.00;102822.06;5273665;28;20500;-73
2022/01/20 07:01:56;;;;;;;13.00;2.05;;;;;;;3.63;100.00;102817.56;5272550;28;20111;-74
2022/01/20 07:04:28;;;;;;;24.15;2.17;;;;;;;3.65;100.00;102821.00;5273137;28;20022;-74
2022/01/20 07:06:59;;;;;;;28.20;2.70;;;;;;;3.66;100.00;102824.50;5272617;28;20051;-75
2022/01/20 07:09:30;;;;;;;17.00;2.58;;;;;;;3.63;100.00;102829.06;5274199;28;20444;-75
2022/01/20 07:12:01;;;;;;;20.33;2.58;;;;;;;3.63;100.00;102847.63;5276668;28;20119;-75
2022/01/20 07:14:31;;;;;;;10.73;2.70;;;;;;;3.65;100.00;102847.53;5277977;28;20024;-75
2022/01/20 07:17:02;;;;;;;16.88;2.40;;;;;;;3.64;100.00;102853.78;5277740;28;20027;-75
2022/01/20 07:19:33;;;;;;;12.73;2.47;;;;;;;3.65;100.00;102860.81;5286815;28;20063;-74
2022/01/20 07:22:03;;;;;;;15.75;2.40;;;;;;;3.62;100.00;102860.97;5273269;28;20020;-74
2022/01/20 07:24:34;;;;;;;19.58;2.30;;;;;;;3.61;100.00;102867.19;5268369;28;20026;-73
2022/01/20 07:27:05;;;;;;;17.10;2.83;;;;;;;3.63;100.00;102868.00;5285761;28;20110;-73
2022/01/20 07:29:35;;;;;;;9.27;2.38;;;;;;;3.61;100.00;102875.16;5273733;28;20020;-74
2022/01/20 07:32:07;;;;;;;23.17;3.72;;;;;;;3.63;100.00;102879.47;5286018;28;20027;-73
2022/01/20 07:34:37;;;;;;;14.68;3.20;;;;;;;3.59;100.00;102880.56;5285976;28;20076;-73
2022/01/20 07:37:08;;;;;;;25.23;2.88;;;;;;;3.59;100.00;102892.97;5286721;28;20019;-73
2022/01/20 07:39:38;;;;;;;15.88;2.58;;;;;;;3.58;100.00;102885.94;5276961;28;20023;-73
2022/01/20 07:42:09;;;;;;;16.70;2.78;;;;;;;3.57;100.00;102889.53;5269450;28;20026;-73
2022/01/20 07:44:39;;;;;;;17.05;2.22;;;;;;;3.64;100.00;102890.97;5273516;28;20375;-73
2022/01/20 07:47:10;;;;;;;14.68;3.10;;;;;;;3.65;100.00;102903.28;5268186;28;20065;-73
2022/01/20 07:49:40;;;;;;;11.57;2.60;;;;;;;3.66;100.00;102897.03;5265120;28;20112;-73
2022/01/20 07:52:12;;;;;;;20.77;2.42;;;;;;;3.64;100.00;102907.75;5268619;28;20480;-75
2022/01/20 07:54:43;;;;;;;19.35;2.13;;;;;;;3.66;100.00;102910.31;5268507;28;20074;-75
2022/01/20 07:57:13;;;;;;;33.30;3.22;;;;;;;3.68;100.00;102908.47;5267607;27;20107;-75
2022/01/20 07:59:44;;;;;;;25.30;3.22;;;;;;;3.66;100.00;102899.69;5268834;28;20032;-73
2022/01/20 08:02:16;;;;;;;19.85;3.35;;;;;;;3.69;100.00;102909.31;5265676;28;20099;-73
2022/01/20 08:04:46;;;;;;;21.48;2.90;;;;;;;3.69;100.00;102907.53;5270533;28;20031;-73
2022/01/20 08:07:18;;;;;;;23.20;3.05;;;;;;;3.66;100.00;102899.69;5276647;28;20423;-75
2022/01/20 08:09:53;;;;;;;22.20;2.75;;;;;;;3.67;100.00;102892.63;5268304;28;20032;-75
2022/01/20 08:12:25;;;;;;;13.52;2.00;;;;;;;3.68;100.00;102903.16;5266345;28;20151;-75
2022/01/20 08:14:58;;;;;;;42.78;3.38;;;;;;;3.64;100.00;102899.78;5268553;28;20204;-75
2022/01/20 08:17:29;;;;;;;26.00;4.38;;;;;;;3.60;100.00;102902.66;5266175;28;20032;-75
2022/01/20 08:19:59;;;;;;;17.90;3.10;;;;;;;3.63;100.00;102907.81;5275265;28;20093;-75
2022/01/20 08:22:34;;;;;;;21.45;4.03;;;;;;;3.64;100.00;102905.09;5272940;28;20066;-75
2022/01/20 08:25:07;;;;;;;12.53;2.63;;;;;;;3.61;100.00;102913.22;5269795;28;20508;-75
2022/01/20 08:27:38;;;;;;;14.98;2.33;;;;;;;3.61;100.00;102923.81;5267950;28;20388;-74
2022/01/20 08:30:12;;;;;;;23.40;4.22;;;;;;;3.56;100.00;102923.16;5270114;28;20052;-75
2022/01/20 08:32:44;;;;;;;14.68;2.33;;;;;;;3.47;100.00;102920.94;5269744;28;20035;-75
2022/01/20 08:35:15;;;;;;;14.43;2.13;;;;;;;3.44;100.00;102926.38;5270960;28;20039;-75
2022/01/20 08:37:46;;;;;;;24.10;2.60;;;;;;;3.61;100.00;102930.91;5271654;28;20031;-75
2022/01/20 08:40:22;;;;;;;15.85;3.20;;;;;;;4.06;100.00;102937.66;5272341;28;20035;-75
2022/01/20 08:42:55;;;;;;;20.95;2.58;;;;;;;4.75;100.00;102944.91;5274895;28;20434;-75
2022/01/20 08:45:29;;;;;;;16.77;2.70;;;;;;;5.07;100.00;102948.56;5278764;28;20402;-75
2022/01/20 08:48:00;;;;;;;14.75;2.58;;;;;;;5.19;100.00;102945.28;5275126;28;20078;-75
2022/01/20 08:50:32;;;;;;;10.85;2.92;;;;;;;5.08;100.00;102951.19;5279062;28;20400;-75
2022/01/20 08:53:03;;;;;;;16.20;2.55;;;;;;;4.91;100.00;102953.81;5265430;28;20111;-75
2022/01/20 08:55:34;;;;;;;14.52;2.67;;;;;;;4.78;100.00;102958.06;5271809;28;20012;-75
2022/01/20 08:58:05;;;;;;;17.50;2.60;;;;;;;4.65;100.00;102948.03;5277305;28;20098;-74
2022/01/20 09:00:36;;;;;;;22.58;3.90;;;;;;;4.54;100.00;102955.69;5276859;28;20557;-75
2022/01/20 09:03:09;;;;;;;26.92;3.95;;;;;;;4.48;100.00;102969.28;5278668;28;20027;-75
2022/01/20 09:05:39;;;;;;;20.70;3.22;;;;;;;4.40;100.00;102969.63;5274910;28;20434;-75
2022/01/20 09:08:12;;;;;;;20.48;3.50;;;;;;;4.45;100.00;102981.84;5273280;28;20109;-74
2022/01/20 09:10:51;;;;;;;17.80;2.95;;;;;;;4.37;100.00;102988.41;5274845;28;20023;-75
2022/01/20 09:16:11;;;;;;;22.65;3.28;;;;;;;4.15;100.00;102980.59;5269422;28;20498;-75
2022/01/20 09:18:42;;;;;;;21.50;2.53;;;;;;;4.08;100.00;102987.13;5270273;28;20089;-75
2022/01/20 09:21:12;;;;;;;18.08;2.35;;;;;;;4.02;100.00;102990.09;5270092;28;20564;-74
2022/01/20 09:23:43;;;;;;;17.77;3.92;;;;;;;4.02;100.00;102999.84;5270443;28;20030;-75
2022/01/20 09:26:13;;;;;;;17.63;3.13;;;;;;;4.07;100.00;103000.50;5270320;28;20031;-75
2022/01/20 09:28:44;;;;;;;21.95;2.58;;;;;;;4.13;100.00;102997.53;5269292;28;20028;-72
2022/01/20 09:31:15;;;;;;;15.25;2.80;;;;;;;4.19;100.00;103004.38;5279346;27;20028;-72
2022/01/20 09:33:46;;;;;;;25.80;3.03;;;;;;;4.21;100.00;102998.03;5276980;28;20110;-72
2022/01/20 09:36:16;;;;;;;14.65;2.58;;;;;;;4.25;100.00;102998.75;5277872;28;20412;-72
2022/01/20 09:38:47;;;;;;;13.00;2.42;;;;;;;4.25;100.00;102991.63;5277847;28;20457;-72
2022/01/20 09:41:17;;;;;;;12.07;2.63;;;;;;;4.32;100.00;102995.75;5272404;28;20111;-72
2022/01/20 09:43:50;;;;;;;9.32;1.60;;;;;;;4.38;100.00;102992.78;5269374;28;20027;-72
2022/01/20 09:46:20;;;;;;;11.82;2.92;;;;;;;4.42;100.00;102996.16;5274620;28;20028;-72
2022/01/20 09:48:51;;;;;;;11.05;2.38;;;;;;;4.50;100.00;102993.97;5272084;28;20089;-72
2022/01/20 09:51:22;;;;;;;19.42;3.50;;;;;;;4.58;100.00;102996.28;5264090;28;20026;-72
2022/01/20 09:53:53;;;;;;;10.10;2.10;;;;;;;4.62;100.00;103001.38;5268275;28;20028;-72
2022/01/20 09:56:23;;;;;;;14.93;2.60;;;;;;;4.66;100.00;103018.00;5285326;27;20019;-72
2022/01/20 09:58:54;;;;;;;16.23;2.92;;;;;;;4.64;100.00;103020.75;5276557;28;20512;-72
2022/01/20 10:01:45;;;;;;;16.92;2.45;;;;;;;4.71;100.00;103029.28;5272559;28;20089;-72
2022/01/20 10:04:19;;;;;;;19.80;2.88;;;;;;;4.72;100.00;103035.47;5263372;28;20031;-72
2022/01/20 10:06:53;;;;;;;12.05;2.00;;;;;;;4.66;100.00;103033.97;5277296;28;20032;-72
2022/01/20 10:09:45;;;;;;;8.60;1.80;;;;;;;4.73;100.00;103034.56;5272074;28;20024;-72
2022/01/20 10:12:18;;;;;;;13.02;2.00;;;;;;;4.96;100.00;103041.38;5263981;28;20032;-72
2022/01/20 10:14:51;;;;;;;8.60;1.95;;;;;;;5.08;100.00;103038.97;5265959;28;20029;-73
2022/01/20 10:17:27;;;;;;;24.58;2.58;;;;;;;5.04;100.00;103036.53;5273083;28;20081;-73
2022/01/20 10:20:14;;;;;;;23.73;2.22;;;;;;;4.92;100.00;103048.66;5269125;28;20031;-72
2022/01/20 10:22:55;;;;;;;12.55;2.15;;;;;;;4.88;100.00;103049.75;5263510;28;20019;-72
2022/01/20 10:25:25;;;;;;;11.50;3.88;;;;;;;4.83;100.00;103055.28;5270384;28;20103;-72
2022/01/20 10:27:57;;;;;;;14.38;3.55;;;;;;;4.81;100.00;103056.28;5271393;28;20099;-72
2022/01/20 10:30:30;;;;;;;18.55;3.25;;;;;;;4.81;100.00;103051.84;5271351;28;20035;-72
2022/01/20 10:33:01;;;;;;;20.02;2.72;;;;;;;4.84;100.00;103057.00;5277835;28;20238;-72
2022/01/20 10:35:34;;;;;;;17.90;2.58;;;;;;;4.87;100.00;103058.63;5268975;28;20020;-72
2022/01/20 10:38:12;;;;;;;14.52;3.17;;;;;;;4.93;100.00;103063.69;5270128;28;20057;-73
2022/01/20 10:40:47;;;;;;;10.90;2.75;;;;;;;4.85;100.00;103064.03;5283883;28;20485;-72
2022/01/20 10:43:36;;;;;;;23.33;4.07;;;;;;;4.87;100.00;103066.63;5271975;28;20102;-72
2022/01/20 10:46:11;;;;;;;17.50;2.90;;;;;;;4.85;100.00;103079.16;5268419;28;20031;-72
2022/01/20 10:48:42;;;;;;;14.27;2.22;;;;;;;4.75;100.00;103067.22;5284574;28;20185;-72
2022/01/20 10:51:31;;;;;;;18.95;2.55;;;;;;;4.86;100.00;103070.22;5281992;28;20277;-72
2022/01/20 10:54:18;;;;;;;13.40;2.25;;;;;;;5.11;100.00;103081.38;5267925;28;20115;-72
2022/01/20 10:56:51;;;;;;;25.85;3.25;;;;;;;5.43;100.00;103082.44;5275179;28;20035;-72
2022/01/20 10:59:23;;;;;;;12.10;1.95;;;;;;;5.59;100.00;103071.00;5276536;28;20077;-72
2022/01/20 11:02:09;;;;;;;16.65;1.90;;;;;;;5.75;100.00;103060.41;5263946;28;20030;-72
2022/01/20 11:04:40;;;;;;;14.30;2.17;;;;;;;5.84;100.00;103081.22;5276784;28;20053;-72
2022/01/20 11:07:11;;;;;;;13.35;1.77;;;;;;;5.96;100.00;103075.25;5264710;28;20133;-72
2022/01/20 11:09:44;;;;;;;18.88;2.42;;;;;;;6.11;100.00;103076.25;5276672;28;20102;-72
2022/01/20 11:12:18;;;;;;;14.10;2.40;;;;;;;6.15;100.00;103083.13;5263357;28;20093;-72
2022/01/20 11:14:51;;;;;;;16.80;4.10;;;;;;;6.28;100.00;103081.53;5262177;28;20465;-72
2022/01/20 11:17:40;;;;;;;13.30;2.80;;;;;;;6.31;100.00;103075.16;5267035;28;20024;-72
2022/01/20 11:20:15;;;;;;;13.32;2.17;;;;;;;6.13;100.00;103082.38;5268209;28;20027;-72
2022/01/20 11:23:07;;;;;;;10.68;2.83;;;;;;;5.76;100.00;103078.94;5276823;27;20027;-72
2022/01/20 11:25:43;;;;;;;14.27;1.90;;;;;;;5.52;100.00;103069.56;5265849;28;20020;-72
2022/01/20 11:28:32;;;;;;;16.05;2.20;;;;;;;5.64;100.00;103071.63;5269397;28;20027;-72
2022/01/20 11:31:06;;;;;;;10.02;1.77;;;;;;;5.62;100.00;103074.38;5266781;28;20047;-72
2022/01/20 11:33:39;;;;;;;12.30;3.25;;;;;;;5.68;100.00;103081.16;5271890;28;20209;-72
2022/01/20 11:36:24;;;;;;;5.55;1.38;;;;;;;5.45;100.00;103082.34;5281028;28;20022;-72
2022/01/20 11:39:17;;;;;;;19.83;2.40;;;;;;;5.50;100.00;103074.13;5275798;28;20065;-72
2022/01/20 11:41:49;;;;;;;18.65;2.42;;;;;;;5.49;100.00;103075.06;5266517;28;20430;-72
2022/01/20 11:44:24;;;;;;;17.35;1.77;;;;;;;5.38;100.00;103073.81;5265886;28;20023;-72
2022/01/20 11:47:05;;;;;;;15.77;2.10;;;;;;;5.25;100.00;103079.84;5283865;28;20384;-72
2022/01/20 11:49:39;;;;;;;20.88;3.20;;;;;;;5.22;100.00;103074.66;5273120;28;20032;-72
2022/01/20 11:52:10;;;;;;;17.83;2.60;;;;;;;5.18;100.00;103081.97;5274400;28;20043;-72
2022/01/20 11:54:45;;;;;;;15.25;2.22;;;;;;;5.14;100.00;103072.41;5271355;28;20079;-72
2022/01/20 11:57:20;;;;;;;;;;;;;;;5.25;100.00;103071.84;5263626;28;20032;-72
2022/01/20 11:59:56;;;;;;;14.32;2.05;;;;;;;5.44;100.00;103070.84;5263390;28;20281;-72
2022/01/20 12:02:30;;;;;;;10.35;2.17;;;;;;;5.62;100.00;103065.50;5280511;28;20472;-72
2022/01/20 12:05:03;;;;;;;13.82;2.17;;;;;;;5.77;100.00;103071.81;5283201;28;20028;-72
2022/01/20 12:07:34;;;;;;;14.90;1.73;;;;;;;5.85;100.00;103065.16;5275494;27;20418;-72
2022/01/20 12:10:25;;;;;;;10.57;1.88;;;;;;;5.84;100.00;103062.56;5276322;28;20084;-72
2022/01/20 12:13:11;;;;;;;15.70;1.63;;;;;;;5.94;100.00;103053.19;5283715;28;20027;-72
2022/01/20 12:16:01;;;;;;;15.23;1.80;;;;;;;5.76;100.00;103052.31;5269696;28;20035;-72
2022/01/20 12:18:32;;;;;;;16.73;1.70;;;;;;;5.87;100.00;103055.28;5270484;28;20030;-72
2022/01/20 12:21:05;;;;;;;16.10;2.08;;;;;;;6.00;100.00;103049.31;5272999;28;20023;-72
2022/01/20 12:23:54;;;;;;;14.15;2.25;;;;;;;6.13;100.00;103045.91;5270437;28;20119;-72
2022/01/20 12:26:25;;;;;;;8.05;1.55;;;;;;;6.07;100.00;103043.56;5271265;28;20174;-72
2022/01/20 12:29:14;;;;;;;18.85;1.90;;;;;;;6.12;100.00;103038.84;5273297;28;20027;-72
2022/01/20 12:31:51;;;;;;;7.60;1.90;;;;;;;6.02;100.00;103018.13;5270272;28;20060;-72
2022/01/20 12:34:22;;;;;;;18.08;1.73;;;;;;;5.84;100.00;103028.81;5269027;28;20152;-72
2022/01/20 12:36:56;;;;;;;7.68;1.58;;;;;;;5.88;100.00;103030.38;5262318;28;20111;-74
2022/01/20 12:39:30;;;;;;;17.20;1.48;;;;;;;6.05;100.00;103025.94;5268193;28;20028;-74
2022/01/20 12:42:05;;;;;;;12.23;2.15;;;;;;;6.25;100.00;103025.72;5272133;28;20030;-74
2022/01/20 12:44:40;;;;;;;12.48;2.90;;;;;;;6.44;100.00;103017.56;5269340;28;20049;-74
2022/01/20 12:47:10;;;;;;;11.82;2.03;;;;;;;6.50;100.00;103014.53;5263360;28;20028;-74
2022/01/20 12:49:41;;;;;;;14.63;2.10;;;;;;;6.48;100.00;103011.97;5262750;28;20059;-74
2022/01/20 12:52:12;;;;;;;19.77;2.30;;;;;;;6.47;100.00;102999.56;5269871;28;20058;-74
2022/01/20 12:54:42;;;;;;;13.80;2.08;;;;;;;6.34;100.00;103011.88;5268520;28;20060;-74
2022/01/20 12:57:13;;;;;;;9.35;1.80;;;;;;;6.46;100.00;103003.16;5270836;28;20019;-74